createdAt,value
2018-08-28T00:00:47.031Z,6.20
2018-08-28T00:03:15.373Z,6.57
2018-08-28T00:05:43.712Z,6.37
2018-08-28T00:08:12.200Z,6.10
2018-08-28T00:10:40.597Z,7.43
2018-08-28T00:13:08.925Z,7.07
2018-08-28T00:15:37.240Z,7.37
2018-08-28T00:18:06.009Z,7.10
2018-08-28T00:20:34.690Z,6.27
2018-08-28T00:23:03.053Z,6.53
2018-08-28T00:25:31.381Z,6.20
2018-08-28T00:27:59.693Z,7.43
2018-08-28T00:30:28.472Z,5.93
2018-08-28T00:32:56.780Z,6.93
2018-08-28T00:35:25.153Z,7.10
2018-08-28T00:37:53.473Z,7.27
2018-08-28T00:40:21.789Z,6.70
2018-08-28T00:42:50.116Z,6.07
2018-08-28T00:45:18.437Z,7.27
2018-08-28T00:47:46.785Z,5.90
2018-08-28T00:50:15.122Z,6.27
2018-08-28T00:52:43.458Z,7.13
2018-08-28T00:55:11.853Z,7.23
2018-08-28T00:57:40.188Z,6.60
2018-08-28T01:00:08.604Z,6.80
2018-08-28T01:02:36.919Z,7.27
2018-08-28T01:05:09.694Z,6.70
2018-08-28T01:07:38.035Z,6.57
2018-08-28T01:10:06.729Z,6.60
2018-08-28T01:12:35.077Z,6.73
2018-08-28T01:15:03.429Z,7.17
2018-08-28T01:17:31.761Z,6.20
2018-08-28T01:20:00.065Z,6.30
2018-08-28T01:22:28.376Z,8.43
2018-08-28T01:24:56.704Z,6.83
2018-08-28T01:27:25.060Z,6.87
2018-08-28T01:29:53.398Z,7.27
2018-08-28T01:32:21.706Z,6.23
2018-08-28T01:34:50.070Z,6.50
2018-08-28T01:37:18.397Z,6.37
2018-08-28T01:39:46.714Z,6.37
2018-08-28T01:42:19.336Z,6.67
2018-08-28T01:44:47.808Z,6.50
2018-08-28T01:47:16.153Z,5.73
2018-08-28T01:49:44.488Z,7.27
2018-08-28T01:52:12.909Z,6.57
2018-08-28T01:54:42.073Z,7.60
2018-08-28T01:57:10.628Z,6.80
2018-08-28T01:59:38.957Z,6.60
2018-08-28T02:02:07.346Z,7.47
2018-08-28T02:04:35.665Z,7.10
2018-08-28T02:07:04.033Z,6.80
2018-08-28T02:09:32.377Z,6.07
2018-08-28T02:12:00.728Z,6.27
2018-08-28T02:14:29.058Z,5.70
2018-08-28T02:16:57.376Z,6.47
2018-08-28T02:19:25.719Z,6.37
2018-08-28T02:21:54.071Z,6.77
2018-08-28T02:24:22.387Z,6.70
2018-08-28T02:26:50.781Z,7.20
2018-08-28T02:29:19.129Z,7.03
2018-08-28T02:31:47.489Z,7.97
2018-08-28T02:34:15.821Z,7.97
2018-08-28T02:36:44.133Z,6.80
2018-08-28T02:39:12.497Z,7.30
2018-08-28T02:41:41.509Z,7.50
2018-08-28T02:44:09.968Z,7.93
2018-08-28T02:46:38.669Z,6.60
2018-08-28T02:49:08.006Z,7.20
2018-08-28T02:51:36.855Z,7.77
2018-08-28T02:54:05.212Z,8.30
2018-08-28T02:56:33.540Z,6.77
2018-08-28T02:59:01.895Z,5.30
2018-08-28T03:01:30.249Z,6.10
2018-08-28T03:03:58.618Z,7.67
2018-08-28T03:06:26.989Z,6.30
2018-08-28T03:08:55.356Z,7.20
2018-08-28T03:11:23.757Z,6.90
2018-08-28T03:13:52.083Z,5.70
2018-08-28T03:16:20.433Z,6.13
2018-08-28T03:18:48.760Z,6.87
2018-08-28T03:21:17.188Z,7.33
2018-08-28T03:23:45.561Z,8.70
2018-08-28T03:26:13.916Z,9.30
2018-08-28T03:28:42.237Z,6.87
2018-08-28T03:31:11.618Z,6.97
2018-08-28T03:33:39.950Z,7.13
2018-08-28T03:36:08.263Z,6.97
2018-08-28T03:38:36.713Z,6.80
2018-08-28T03:41:05.092Z,7.60
2018-08-28T03:43:33.420Z,7.30
2018-08-28T03:46:01.721Z,5.50
2018-08-28T03:48:30.072Z,6.67
2018-08-28T03:50:58.395Z,6.97
2018-08-28T03:53:26.709Z,6.60
2018-08-28T03:55:55.035Z,6.70
2018-08-28T03:58:23.353Z,7.90
2018-08-28T04:00:51.677Z,5.80
2018-08-28T04:03:20.632Z,6.83
2018-08-28T04:05:48.964Z,6.40
2018-08-28T04:08:17.268Z,6.80
2018-08-28T04:10:45.657Z,6.17
2018-08-28T04:13:14.413Z,5.70
2018-08-28T04:15:42.757Z,5.83
2018-08-28T04:18:11.073Z,5.27
2018-08-28T04:20:39.576Z,6.10
2018-08-28T04:23:07.928Z,6.63
2018-08-28T04:25:36.242Z,7.10
2018-08-28T04:28:04.609Z,7.10
2018-08-28T04:30:32.964Z,6.47
2018-08-28T04:33:01.315Z,5.93
2018-08-28T04:35:29.624Z,6.07
2018-08-28T04:37:57.989Z,5.30
2018-08-28T04:40:26.336Z,6.10
2018-08-28T04:42:54.653Z,7.50
2018-08-28T04:45:23.023Z,6.53
2018-08-28T04:47:51.353Z,6.57
2018-08-28T04:50:19.669Z,6.30
2018-08-28T04:52:47.998Z,6.60
2018-08-28T04:55:16.316Z,6.40
2018-08-28T04:57:44.637Z,6.13
2018-08-28T05:00:12.978Z,6.17
2018-08-28T05:02:42.069Z,6.27
2018-08-28T05:05:10.448Z,6.13
2018-08-28T05:07:38.839Z,6.77
2018-08-28T05:10:07.332Z,5.70
2018-08-28T05:12:35.712Z,6.17
2018-08-28T05:15:04.082Z,5.40
2018-08-28T05:17:32.437Z,5.70
2018-08-28T05:20:00.752Z,5.70
2018-08-28T05:22:29.135Z,7.53
2018-08-28T05:24:57.456Z,6.33
2018-08-28T05:27:25.764Z,5.77
2018-08-28T05:29:54.084Z,6.10
2018-08-28T05:32:22.405Z,7.00
2018-08-28T05:34:50.765Z,6.03
2018-08-28T05:37:19.077Z,5.90
2018-08-28T05:39:47.402Z,6.13
2018-08-28T05:42:15.748Z,6.20
2018-08-28T05:44:44.117Z,5.67
2018-08-28T05:47:12.465Z,5.67
2018-08-28T05:49:41.456Z,6.00
2018-08-28T05:52:09.676Z,5.50
2018-08-28T05:54:38.000Z,6.17
2018-08-28T05:57:06.008Z,6.07
2018-08-28T05:59:34.342Z,6.33
2018-08-28T06:02:02.823Z,6.57
2018-08-28T06:04:31.261Z,6.73
2018-08-28T06:06:59.646Z,6.60
2018-08-28T06:09:27.956Z,6.60
2018-08-28T06:11:56.297Z,5.40
2018-08-28T06:14:24.676Z,5.80
2018-08-28T06:19:43.714Z,6.63
2018-08-28T06:22:12.520Z,6.50
2018-08-28T06:24:40.945Z,6.73
2018-08-28T06:27:09.294Z,6.77
2018-08-28T06:29:37.858Z,6.67
2018-08-28T06:32:06.379Z,6.70
2018-08-28T06:34:34.806Z,7.43
2018-08-28T06:37:03.179Z,6.93
2018-08-28T06:39:31.994Z,6.80
2018-08-28T06:42:01.137Z,5.47
2018-08-28T06:44:30.098Z,6.40
2018-08-28T06:46:59.381Z,7.13
2018-08-28T06:49:27.734Z,6.13
2018-08-28T06:51:56.165Z,6.10
2018-08-28T06:54:24.638Z,7.13
2018-08-28T06:56:53.133Z,6.70
2018-08-28T06:59:22.697Z,5.90
2018-08-28T07:01:51.001Z,5.70
2018-08-28T07:04:20.389Z,5.80
2018-08-28T07:06:48.705Z,6.00
2018-08-28T07:09:17.057Z,5.97
2018-08-28T07:11:45.423Z,6.03
2018-08-28T07:14:13.740Z,4.17
2018-08-28T07:16:43.285Z,5.10
2018-08-28T07:19:11.601Z,4.90
2018-08-28T07:21:39.973Z,7.10
2018-08-28T07:24:08.323Z,6.57
2018-08-28T07:26:36.649Z,5.50
2018-08-28T07:29:10.525Z,6.67
2018-08-28T07:31:38.856Z,5.10
2018-08-28T07:34:07.228Z,5.20
2018-08-28T07:36:35.540Z,5.10
2018-08-28T07:39:04.574Z,4.87
2018-08-28T07:41:33.543Z,5.17
2018-08-28T07:44:01.853Z,6.10
2018-08-28T07:46:30.209Z,5.53
2018-08-28T07:48:58.511Z,6.43
2018-08-28T07:51:26.884Z,6.10
2018-08-28T07:53:55.349Z,6.53
2018-08-28T07:56:23.661Z,7.80
2018-08-28T07:58:51.968Z,7.83
2018-08-28T08:01:20.393Z,8.23
2018-08-28T08:03:55.225Z,8.13
2018-08-28T08:06:23.673Z,8.70
2018-08-28T08:08:52.814Z,9.30
2018-08-28T08:11:21.157Z,8.93
2018-08-28T08:13:49.518Z,9.30
2018-08-28T08:16:17.847Z,10.10
2018-08-28T08:18:46.137Z,10.90
2018-08-28T08:21:14.493Z,9.30
2018-08-28T08:23:43.666Z,9.63
2018-08-28T08:26:12.004Z,9.90
2018-08-28T08:28:40.302Z,9.47
2018-08-28T08:31:08.695Z,6.97
2018-08-28T08:33:37.026Z,7.63
2018-08-28T08:36:05.580Z,7.10
2018-08-28T08:38:33.914Z,7.93
2018-08-28T08:41:02.312Z,8.33
2018-08-28T08:43:30.639Z,7.57
2018-08-28T08:45:59.243Z,6.80
2018-08-28T08:48:28.152Z,7.87
2018-08-28T08:50:56.534Z,5.73
2018-08-28T08:53:25.569Z,6.60
2018-08-28T08:55:53.898Z,6.10
2018-08-28T08:58:22.203Z,5.70
2018-08-28T09:00:50.541Z,3.80
2018-08-28T09:03:18.879Z,4.40
2018-08-28T09:05:47.199Z,3.70
2018-08-28T09:08:15.624Z,3.70
2018-08-28T09:10:43.949Z,4.37
2018-08-28T09:13:12.260Z,5.00
2018-08-28T09:15:40.593Z,3.67
2018-08-28T09:18:08.970Z,4.50
2018-08-28T09:20:37.365Z,3.67
2018-08-28T09:23:05.733Z,4.07
2018-08-28T09:25:34.045Z,4.37
2018-08-28T09:28:02.353Z,4.67
2018-08-28T09:30:30.788Z,4.80
2018-08-28T09:33:03.532Z,6.03
2018-08-28T09:35:31.872Z,4.90
2018-08-28T09:38:00.212Z,6.43
2018-08-28T09:40:31.708Z,6.30
2018-08-28T09:43:00.037Z,5.07
2018-08-28T09:45:28.369Z,5.60
2018-08-28T09:47:56.703Z,4.90
2018-08-28T09:50:25.052Z,5.53
2018-08-28T09:52:53.355Z,6.57
2018-08-28T09:55:23.241Z,6.53
2018-08-28T09:57:51.593Z,7.10
2018-08-28T10:00:25.843Z,6.47
2018-08-28T10:02:54.165Z,5.97
2018-08-28T10:05:22.565Z,4.60
2018-08-28T10:08:07.591Z,6.80
2018-08-28T10:10:36.926Z,5.63
2018-08-28T10:13:05.285Z,6.37
2018-08-28T10:15:33.608Z,6.30
2018-08-28T10:18:01.917Z,6.40
2018-08-28T10:20:30.236Z,6.43
2018-08-28T10:22:58.623Z,5.73
2018-08-28T10:25:26.945Z,4.63
2018-08-28T10:27:55.315Z,5.10
2018-08-28T10:30:23.677Z,5.70
2018-08-28T10:32:51.965Z,5.00
2018-08-28T10:35:20.970Z,4.63
2018-08-28T10:37:50.431Z,5.60
2018-08-28T10:40:18.720Z,5.50
2018-08-28T10:42:47.040Z,5.30
2018-08-28T10:45:15.364Z,5.40
2018-08-28T10:47:43.701Z,5.30
2018-08-28T10:50:12.079Z,5.60
2018-08-28T10:52:40.393Z,5.23
2018-08-28T10:55:08.859Z,6.50
2018-08-28T10:57:37.230Z,5.17
2018-08-28T11:00:05.725Z,6.23
2018-08-28T11:02:34.231Z,5.63
2018-08-28T11:05:02.943Z,5.50
2018-08-28T11:07:31.263Z,5.63
2018-08-28T11:09:59.602Z,5.97
2018-08-28T11:12:27.913Z,6.27
2018-08-28T11:14:56.696Z,5.63
2018-08-28T11:17:25.232Z,5.97
2018-08-28T11:19:53.569Z,4.97
2018-08-28T11:22:21.952Z,5.87
2018-08-28T11:24:50.226Z,6.83
2018-08-28T11:27:18.531Z,6.83
2018-08-28T11:29:46.920Z,5.40
2018-08-28T11:32:15.776Z,6.03
2018-08-28T11:34:44.101Z,5.67
2018-08-28T11:37:12.470Z,6.20
2018-08-28T11:39:40.834Z,6.00
2018-08-28T11:42:09.166Z,5.60
2018-08-28T11:44:37.490Z,5.50
2018-08-28T11:47:05.936Z,6.03
2018-08-28T11:49:34.197Z,5.63
2018-08-28T11:52:02.584Z,5.93
2018-08-28T11:54:30.909Z,4.63
2018-08-28T11:56:59.248Z,5.10
2018-08-28T11:59:27.569Z,5.20
2018-08-28T12:01:55.906Z,6.40
2018-08-28T12:04:24.220Z,6.20
2018-08-28T12:06:53.533Z,6.43
2018-08-28T12:09:21.769Z,5.10
2018-08-28T12:11:50.093Z,5.67
2018-08-28T12:14:19.436Z,5.37
2018-08-28T12:16:47.748Z,5.87
2018-08-28T12:19:16.121Z,5.33
2018-08-28T12:21:44.451Z,5.60
2018-08-28T12:24:12.796Z,5.10
2018-08-28T12:26:41.168Z,6.07
2018-08-28T12:29:09.453Z,5.40
2018-08-28T12:31:37.772Z,5.70
2018-08-28T12:34:06.118Z,5.33
2018-08-28T12:36:35.119Z,5.40
2018-08-28T12:39:03.462Z,4.83
2018-08-28T12:41:31.776Z,5.43
2018-08-28T12:44:00.218Z,5.37
2018-08-28T12:46:28.438Z,5.73
2018-08-28T12:48:56.723Z,5.73
2018-08-28T12:51:25.146Z,5.83
2018-08-28T12:53:54.129Z,5.20
2018-08-28T12:56:22.460Z,4.50
2018-08-28T12:58:50.829Z,4.83
2018-08-28T13:01:19.248Z,6.53
2018-08-28T13:03:47.655Z,5.53
2018-08-28T13:06:16.069Z,5.50
2018-08-28T13:08:44.391Z,5.27
2018-08-28T13:11:12.916Z,4.97
2018-08-28T13:13:41.310Z,5.23
2018-08-28T13:16:09.681Z,5.30
2018-08-28T13:18:38.041Z,5.53
2018-08-28T13:21:06.377Z,5.53
2018-08-28T13:23:34.727Z,6.20
2018-08-28T13:26:04.044Z,6.27
2018-08-28T13:28:32.239Z,5.07
2018-08-28T13:31:00.560Z,5.00
2018-08-28T13:33:28.925Z,5.70
2018-08-28T13:35:57.237Z,4.87
2018-08-28T13:38:25.681Z,5.00
2018-08-28T13:40:54.000Z,5.40
2018-08-28T13:43:22.306Z,5.30
2018-08-28T13:45:50.637Z,5.40
2018-08-28T13:48:19.016Z,5.60
2018-08-28T13:50:47.878Z,5.80
2018-08-28T13:53:16.184Z,5.77
2018-08-28T13:55:44.497Z,4.67
2018-08-28T13:58:12.827Z,5.10
2018-08-28T14:00:41.184Z,5.43
2018-08-28T14:03:09.702Z,5.63
2018-08-28T14:05:38.008Z,4.70
2018-08-28T14:08:06.365Z,5.50
2018-08-28T14:10:34.725Z,5.40
2018-08-28T14:13:03.106Z,5.20
2018-08-28T14:15:31.405Z,5.90
2018-08-28T14:17:59.767Z,4.90
2018-08-28T14:20:28.120Z,5.63
2018-08-28T14:22:56.450Z,4.97
2018-08-28T14:25:24.764Z,6.33
2018-08-28T14:27:53.125Z,5.60
2018-08-28T14:30:21.429Z,5.13
2018-08-28T14:32:49.751Z,4.70
2018-08-28T14:35:18.169Z,5.80
2018-08-28T14:37:46.485Z,5.20
2018-08-28T14:40:15.833Z,5.17
2018-08-28T14:42:44.215Z,5.47
2018-08-28T14:45:12.655Z,5.07
2018-08-28T14:47:41.001Z,5.90
2018-08-28T14:50:09.350Z,5.20
2018-08-28T14:52:37.674Z,4.53
2018-08-28T14:55:06.037Z,4.67
2018-08-28T14:57:34.348Z,4.40
2018-08-28T15:00:02.705Z,4.77
2018-08-28T15:02:31.013Z,5.20
2018-08-28T15:04:59.355Z,4.30
2018-08-28T15:07:27.669Z,4.70
2018-08-28T15:09:56.133Z,3.63
2018-08-28T15:12:24.448Z,3.60
2018-08-28T15:14:52.794Z,4.20
2018-08-28T15:17:21.111Z,3.93
2018-08-28T15:19:49.417Z,4.47
2018-08-28T15:22:17.725Z,5.10
2018-08-28T15:24:46.164Z,4.33
2018-08-28T15:27:14.558Z,4.97
2018-08-28T15:29:42.874Z,4.17
2018-08-28T15:32:11.202Z,4.73
2018-08-28T15:34:39.568Z,4.70
2018-08-28T15:37:07.920Z,4.37
2018-08-28T15:39:36.840Z,4.80
2018-08-28T15:42:05.272Z,4.20
2018-08-28T15:44:33.578Z,3.90
2018-08-28T15:47:01.881Z,4.37
2018-08-28T15:49:30.294Z,4.30
2018-08-28T15:51:58.638Z,4.47
2018-08-28T15:54:27.030Z,5.23
2018-08-28T15:56:55.444Z,3.90
2018-08-28T15:59:23.777Z,4.87
2018-08-28T16:01:52.164Z,4.40
2018-08-28T16:04:21.221Z,4.87
2018-08-28T16:06:51.160Z,4.43
2018-08-28T16:09:19.544Z,5.47
2018-08-28T16:11:48.185Z,4.67
2018-08-28T16:14:16.496Z,4.80
2018-08-28T16:16:45.825Z,4.53
2018-08-28T16:19:15.405Z,4.37
2018-08-28T16:21:52.488Z,4.40
2018-08-28T16:24:21.263Z,4.20
2018-08-28T16:26:49.568Z,4.60
2018-08-28T16:29:17.904Z,4.80
2018-08-28T16:31:46.218Z,5.10
2018-08-28T16:34:14.526Z,5.07
2018-08-28T16:36:42.828Z,5.17
2018-08-28T16:39:11.161Z,4.47
2018-08-28T16:41:39.537Z,4.83
2018-08-28T16:44:08.186Z,5.60
2018-08-28T16:46:36.680Z,5.33
2018-08-28T16:49:05.079Z,4.20
2018-08-28T16:51:33.425Z,4.60
2018-08-28T16:54:02.060Z,7.17
2018-08-28T16:56:30.755Z,5.40
2018-08-28T16:58:59.069Z,5.20
2018-08-28T17:01:27.522Z,4.93
2018-08-28T17:03:55.767Z,5.00
2018-08-28T17:06:24.096Z,4.37
2018-08-28T17:08:52.424Z,4.00
2018-08-28T17:11:21.608Z,4.70
2018-08-28T17:13:49.901Z,4.80
2018-08-28T17:16:18.549Z,4.53
2018-08-28T17:18:46.907Z,4.47
2018-08-28T17:21:15.242Z,5.00
2018-08-28T17:23:43.625Z,5.50
2018-08-28T17:26:12.689Z,5.07
2018-08-28T17:28:41.042Z,7.13
2018-08-28T17:31:09.522Z,7.17
2018-08-28T17:33:37.810Z,11.73
2018-08-28T17:36:06.753Z,6.30
2018-08-28T17:38:35.129Z,5.20
2018-08-28T17:41:03.485Z,5.30
2018-08-28T17:43:33.301Z,6.10
2018-08-28T17:46:01.622Z,6.10
2018-08-28T17:48:30.048Z,5.83
2018-08-28T17:50:58.377Z,5.80
2018-08-28T17:53:26.822Z,5.00
2018-08-28T17:55:55.196Z,6.67
2018-08-28T17:58:23.529Z,9.20
2018-08-28T18:00:51.839Z,9.40
2018-08-28T18:03:20.157Z,7.63
2018-08-28T18:05:48.451Z,5.37
2018-08-28T18:08:17.538Z,5.67
2018-08-28T18:10:45.949Z,5.10
2018-08-28T18:13:14.260Z,5.10
2018-08-28T18:15:42.610Z,4.57
2018-08-28T18:18:10.950Z,4.47
2018-08-28T18:20:39.309Z,5.30
2018-08-28T18:23:08.360Z,5.20
2018-08-28T18:25:36.719Z,5.67
2018-08-28T18:28:05.218Z,6.53
2018-08-28T18:30:33.568Z,5.17
2018-08-28T18:33:02.501Z,5.80
2018-08-28T18:35:30.793Z,5.23
2018-08-28T18:37:59.150Z,5.57
2018-08-28T18:40:27.489Z,6.00
2018-08-28T18:42:55.912Z,5.53
2018-08-28T18:45:24.221Z,5.13
2018-08-28T18:47:55.167Z,5.57
2018-08-28T18:50:27.772Z,5.93
2018-08-28T18:52:59.788Z,6.20
2018-08-28T18:55:28.311Z,5.60
2018-08-28T18:57:56.713Z,6.20
2018-08-28T19:00:25.048Z,6.03
2018-08-28T19:02:53.445Z,6.37
2018-08-28T19:05:21.765Z,6.00
2018-08-28T19:07:50.537Z,5.90
2018-08-28T19:10:19.184Z,5.80
2018-08-28T19:12:47.769Z,5.73
2018-08-28T19:15:16.072Z,5.77
2018-08-28T19:17:44.440Z,6.27
2018-08-28T19:20:13.510Z,8.57
2018-08-28T19:22:53.287Z,6.53
2018-08-28T19:25:26.256Z,7.10
2018-08-28T19:28:02.863Z,7.07
2018-08-28T19:30:39.043Z,6.83
2018-08-28T19:33:11.521Z,6.80
2018-08-28T19:36:10.588Z,7.03
2018-08-28T19:38:45.163Z,6.40
2018-08-28T19:41:17.486Z,6.43
2018-08-28T19:43:55.540Z,7.67
2018-08-28T19:46:27.461Z,7.97
2018-08-28T19:49:05.859Z,6.40
2018-08-28T19:51:42.185Z,6.63
2018-08-28T19:54:10.637Z,7.63
2018-08-28T19:56:39.013Z,5.80
2018-08-28T19:59:08.118Z,6.60
2018-08-28T20:01:36.826Z,6.30
2018-08-28T20:04:05.369Z,5.37
2018-08-28T20:06:33.525Z,5.70
2018-08-28T20:09:01.936Z,5.33
2018-08-28T20:11:30.340Z,5.60
2018-08-28T20:13:58.665Z,6.33
2018-08-28T20:16:27.076Z,5.93
2018-08-28T20:18:55.391Z,6.63
2018-08-28T20:21:23.724Z,6.20
2018-08-28T20:23:52.032Z,6.40
2018-08-28T20:26:20.362Z,5.60
2018-08-28T20:28:48.697Z,7.13
2018-08-28T20:31:17.008Z,6.30
2018-08-28T20:33:45.335Z,5.77
2018-08-28T20:36:13.661Z,5.97
2018-08-28T20:38:42.001Z,5.50
2018-08-28T20:41:10.311Z,5.93
2018-08-28T20:43:38.620Z,6.17
2018-08-28T20:46:08.047Z,6.30
2018-08-28T20:48:36.411Z,6.93
2018-08-28T20:51:04.792Z,7.73
2018-08-28T20:53:36.058Z,5.73
2018-08-28T20:56:04.812Z,6.03
2018-08-28T20:58:33.133Z,6.30
2018-08-28T21:01:01.495Z,6.00
2018-08-28T21:03:29.802Z,6.37
2018-08-28T21:05:58.135Z,6.47
2018-08-28T21:08:26.533Z,7.20
2018-08-28T21:10:54.860Z,6.20
2018-08-28T21:13:23.219Z,7.40
2018-08-28T21:15:51.568Z,7.03
2018-08-28T21:18:19.880Z,6.07
2018-08-28T21:20:48.279Z,6.63
2018-08-28T21:23:19.070Z,7.67
2018-08-28T21:25:47.513Z,5.70
2018-08-28T21:28:15.865Z,7.83
2018-08-28T21:30:44.200Z,6.83
2018-08-28T21:33:12.553Z,5.53
2018-08-28T21:35:41.147Z,6.70
2018-08-28T21:38:09.416Z,6.70
2018-08-28T21:40:37.721Z,6.53
2018-08-28T21:43:06.058Z,7.30
2018-08-28T21:45:34.376Z,7.20
2018-08-28T21:48:02.784Z,6.43
2018-08-28T21:50:31.087Z,6.73
2018-08-28T21:52:59.440Z,6.33
2018-08-28T21:55:28.540Z,7.10
2018-08-28T21:57:57.129Z,6.53
2018-08-28T22:00:25.443Z,7.50
2018-08-28T22:02:53.764Z,7.23
2018-08-28T22:05:27.894Z,7.40
2018-08-28T22:08:01.258Z,6.90
2018-08-28T22:10:30.192Z,7.30
2018-08-28T22:12:58.574Z,6.63
2018-08-28T22:15:26.917Z,6.40
2018-08-28T22:17:55.596Z,6.93
2018-08-28T22:20:23.924Z,5.80
2018-08-28T22:22:52.768Z,5.83
2018-08-28T22:25:21.257Z,6.77
2018-08-28T22:27:49.596Z,7.77
2018-08-28T22:30:17.951Z,6.93
2018-08-28T22:32:46.321Z,7.50
2018-08-28T22:35:14.644Z,6.77
2018-08-28T22:37:42.969Z,7.77
2018-08-28T22:40:12.164Z,6.30
2018-08-28T22:42:40.929Z,6.93
2018-08-28T22:45:09.258Z,6.90
2018-08-28T22:47:37.677Z,6.70
2018-08-28T22:50:06.564Z,6.57
2018-08-28T22:52:34.924Z,6.80
2018-08-28T22:55:03.440Z,7.17
2018-08-28T22:57:31.793Z,7.07
2018-08-28T23:00:00.205Z,6.93
2018-08-28T23:02:28.561Z,6.30
2018-08-28T23:04:56.908Z,6.73
2018-08-28T23:07:25.232Z,6.17
2018-08-28T23:09:53.596Z,7.80
2018-08-28T23:12:22.015Z,7.13
2018-08-28T23:14:50.262Z,6.27
2018-08-28T23:17:18.645Z,7.40
2018-08-28T23:19:46.953Z,6.80
2018-08-28T23:22:15.299Z,7.20
2018-08-28T23:24:43.641Z,7.47
2018-08-28T23:27:12.016Z,6.70
2018-08-28T23:29:40.347Z,6.73
2018-08-28T23:32:09.061Z,8.23
2018-08-28T23:34:37.589Z,7.13
2018-08-28T23:37:06.233Z,7.40
2018-08-28T23:39:34.533Z,8.33
2018-08-28T23:42:02.894Z,6.93
2018-08-28T23:44:31.837Z,7.10
2018-08-28T23:47:00.160Z,6.63
2018-08-28T23:49:28.501Z,7.90
2018-08-28T23:51:56.864Z,6.90
2018-08-28T23:54:25.184Z,8.30
2018-08-28T23:56:53.519Z,7.93
2018-08-28T23:59:22.469Z,8.73
